Anton Krämer

Olheiro - Hamburger SV
4 Abr 2027
Domingo
Processo

Personalidade

Adaptabilidade (2) Ambição (16) Controvérsia (3) Lealdade (8) Pressão (10) Profissionalismo (15) Espírito Esportivo (19) Temperamento (14)

Perfil

Estilo de Treinamento Democrático
Licença Nacional B
Determinação 11
Gestão de Pessoas 13
Motivação 9
Disciplina 11
Satisfação no Trabalho
61%
Fadiga
0%
Função Olheiro
Salário 28.7K p/s
Contrato 14.03.2030

Desempenho

Comportamento Bom
Eficácia do Treinamento
31%
Desenvolvimento do Jogador
60%
Prevenção de Lesões
40%
Implementação Tática
45%

Eventos Recentes

Avaliou um jogador agora
Avaliou um jogador agora
Participou de uma reunião de recrutamento agora
Avaliou um jogador agora
Avaliou um jogador agora
Avaliou um jogador agora
Observou uma partida 7d atrás
Avaliou um jogador 7d atrás

Monitorando agora

82
Jogador Clube Status Habilidade Confiança Observado Última observação Último voto
João Teixeira Porto Ativo 103 / 120 40% 3 02.04.2027 -
Samuele di Benedetto Charlton Athletic Ativo 106 / 111 40% 1 02.04.2027 -
Florián Monzón Atlas Ativo 132 / 133 40% 3 01.04.2027 -
Ekain Orobengoa Real Sociedad Ativo 98 / 109 40% 1 01.04.2027 -
Martim Cunha Porto Ativo 97 / 99 40% 2 31.03.2027 -
Enis Destan Konyaspor Ativo 129 / 129 40% 1 31.03.2027 -
Gonzalo Plata Dinamo Moscow Ativo 126 / 129 40% 1 31.03.2027 -
Nacer Tielemans Mouscron Ativo 140 / 140 40% 1 31.03.2027 -
Yorbe Vertessen Red Bull Salzburg Ativo 128 / 126 40% 2 29.03.2027 -
Sergio Quintero La Equidad Ativo 128 / 152 40% 2 29.03.2027 -
Riyad Idrissi Cagliari Ativo 124 / 134 40% 1 29.03.2027 -
Jackson Muleka Konyaspor Ativo 113 / 115 40% 1 29.03.2027 -
Maldini Kacurri Grimsby Town Ativo 89 / 90 40% 1 27.03.2027 -
Tiago Freitas Benfica Ativo 105 / 109 40% 2 26.03.2027 -
Gonçalo Moreira Benfica Ativo 109 / 126 40% 1 26.03.2027 -
Elijah Dijkstra Feyenoord Ativo 122 / 137 40% 1 26.03.2027 -
Matthew Litherland Blackburn Rovers Ativo 106 / 120 40% 1 26.03.2027 -
Chris Rigg Sunderland Ativo 122 / 142 40% 3 25.03.2027 -
Sabil Hansen Randers Ativo 92 / 110 40% 1 25.03.2027 -
Felipe Augusto Zenit Ativo 119 / 122 40% 2 23.03.2027 -
Augusto Bando Ascoli Ativo 108 / 114 40% 3 23.03.2027 -
García Pascual Cádiz Ativo 120 / 115 40% 1 23.03.2027 -
Khalis Merah LOSC Lille Ativo 129 / 126 40% 1 23.03.2027 -
Joaquin Seys Club Brugge Ativo 137 / 133 40% 1 22.03.2027 -
Jaydee Canvot Crystal Palace Ativo 130 / 138 40% 3 21.03.2027 -
Freddie Draper Lincoln City Ativo 107 / 120 40% 1 20.03.2027 -
Dylan Vente Heerenveen Ativo 125 / 113 40% 1 20.03.2027 -
Axel Tape Bayer Leverkusen Ativo 130 / 130 40% 2 19.03.2027 -
Siyabonga Mokoena SuperSport United Ativo 108 / 94 40% 1 19.03.2027 -
Vanja Dragojević Partizan Ativo 126 / 125 40% 1 17.03.2027 -
Nikolaus Wurmbrand Brighton Ativo 124 / 130 40% 1 17.03.2027 -
Teun Gijselhart Deportivo La Coruña Ativo 109 / 108 40% 1 15.03.2027 -
Juan Pablo De la Reta Maipú Ativo 126 / 130 40% 1 15.03.2027 -
Thiago Silvero River Plate Ativo 128 / 133 40% 1 13.03.2027 -
Ilja Ishkov Ural Ativo 90 / 117 40% 1 11.03.2027 -
Mohamadou Kanté West Ham United Ativo 115 / 115 40% 1 11.03.2027 -
Pedro Zenit Ativo 144 / 139 40% 1 05.03.2027 -
Robert FC Copenhagen Ativo 122 / 124 40% 1 05.03.2027 -
Simone Kosijer Triestina Ativo 87 / 99 40% 1 02.03.2027 -
Lior Kasa Maccabi Haifa Ativo 117 / 100 40% 1 01.03.2027 -
Sam Parker Swansea City Ativo 101 / 94 40% 1 01.03.2027 -
Efraín Álvarez Guadalajara Ativo 146 / 121 40% 5 29.01.2027 -
Adrian Benedyczak Kasimpasa Ativo 109 / 120 40% 1 29.01.2027 -
Ezechiel Banzuzi RB Leipzig Perdido 125 / 136 55% 1 18.01.2027 -
Exequiel Zeballos Boca Juniors Ativo 132 / 144 40% 2 26.12.2026 -
Ousmane Camara Castellón Ativo 114 / 123 40% 1 26.12.2026 -
Matteo di Giusto Luzern Ativo 124 / 126 40% 2 22.12.2026 -
Danylo Sikan Anderlecht Ativo 118 / 131 40% 1 20.12.2026 -
Sinan Karweina Luzern Ativo 105 / 109 40% 3 17.12.2026 -
Juan-José Perea Zurich Ativo 113 / 125 40% 2 09.12.2026 -
Josias Lukembila Sion Perdido 108 / 125 40% 3 04.12.2026 -
Brayan León Mamelodi Sundowns Ativo 105 / 106 40% 2 04.12.2026 -
Marcos Paulo Juventude Ativo 103 / 116 40% 1 02.12.2026 -
Jalen Blesa Rio Ave Ativo 123 / 121 40% 1 02.12.2026 -
Bojan Radulović Huddersfield Town Ativo 118 / 109 40% 1 01.12.2026 -
Alan Velasco Boca Juniors Ativo 138 / 120 40% 1 24.11.2026 -
Fiete Arp OB Ativo 114 / 132 40% 1 24.11.2026 -
Tadeo Allende Inter Miami CF Ativo 138 / 130 40% 3 23.11.2026 -
Juan Manuel Boselli Krasnodar Ativo 138 / 133 40% 1 23.11.2026 -
Carlos Martín Atlético Madrid Ativo 125 / 130 40% 2 17.11.2026 -
Ramiro Ruiz Rodríguez Atlético Tucumán Ativo 128 / 132 40% 1 17.11.2026 -
Maurits Kjærgaard Red Bull Salzburg Ativo 140 / 128 40% 2 15.11.2026 -
Philippe Keny Zurich Ativo 119 / 123 40% 2 15.11.2026 -
Ilyas Chouaref Sion Ativo 126 / 125 40% 2 11.11.2026 -
Luca Orellano Monterrey Ativo 142 / 145 40% 3 11.11.2026 -
Alexander Díaz Deportivo Riestra Ativo 108 / 110 40% 2 01.11.2026 -
Ignacio Russo Tigre Ativo 110 / 120 40% 1 31.10.2026 -
Jefry Zapata Once Caldas Ativo 102 / 118 40% 2 25.10.2026 -
Cesar Corona Veracruz Ativo 147 / 131 40% 1 16.10.2026 -
Favio Cabral Mitre Ativo 129 / 115 40% 2 02.10.2026 -
Julian von Moos Grasshopper Ativo 121 / 117 40% 1 02.10.2026 -
Luciano Gondou CSKA Moscow Ativo 115 / 125 40% 1 24.09.2026 -
Brandon Vázquez Austin FC Ativo 136 / 110 40% 1 24.09.2026 -
Kévin Denkey FC Cincinnati Ativo 142 / 130 40% 2 23.09.2026 -
Rilind Nivokazi Sion Ativo 107 / 110 40% 2 23.09.2026 -
Indiana Vassilev Philadelphia Union Ativo 112 / 117 40% 1 18.09.2026 -
Manfred Ugalde Spartak Moscow Ativo 131 / 119 40% 2 13.09.2026 -
Agustín Venezia Iquique Ativo 92 / 118 40% 1 09.09.2026 -
Elías Báez Atlanta United FC Ativo 131 / 124 40% 1 01.09.2026 -
Umeh Emmanuel Zurich Ativo 110 / 116 40% 1 17.08.2026 -
Oliver Dovin Coventry City Ativo 122 / 130 40% 1 01.08.2026 -
Lucas Bergström Mallorca Ativo 125 / 115 40% 1 01.08.2026 -